San Diego, California
Traffic Map
Current Weather Conditions
San Diego, California
Broken Clouds
Broken Clouds
65°
Feels Like: 65°
Wind Chill: 65° Ceiling: 20000
Heat Index: 65° Visibility: 10mi
Dew Point: 56° Wind: 0mph
Humidity: 73% Direction: ° ()
Pressure: 30.05in Gusts: 0mph
Raw Report DataKSAN 180151Z 00000KT 10SM SCT120 BKN200 18/13 A3005 RMK AO2 SLP174 T01830133
Traffic Incident Summary
Active as of:
Severity:
Category:
InformationThere was an issue retrieving the traffic information for this location. Please try a different location or try again shortly.
Advertisements